Latest Weather Observations for Miles

IDQ60801

Issued at 11:02 pm EST Wednesday 1 April 2015 (issued every 30 minutes, with the page automatically refreshed every 10 minutes)

About weather observations | Map of weather stations | Latest weather observations for QLD | Other Formats
Station Details ID: 042112 Name: MILES CONSTANCE STREET Lat: -26.66 Lon: 150.18 Height: 304.8 m
Data from the previous 72 hours. | See also: Recent months at Miles
Date/Time
EST
Temp
°C
App
Temp
°C
Dew
Point
Rel
Hum
%
Delta-T
°C
Wind Press
QNH
hPa
Press
MSL
hPa
Rain
since 9 am
mm
Dir
 
Spd
km/h
Gust
km/h
Spd
kts
Gust
kts
01/11:00pm 20.3 21.4 15.5 74 2.9 E 4 9 2 5 1020.7 - 0.0
01/10:30pm 20.2 20.6 15.2 73 3.0 ENE 7 11 4 6 1020.6 - 0.0
01/10:00pm 20.2 20.4 14.8 71 3.2 ENE 7 13 4 7 1020.7 - 0.0
01/09:30pm 20.2 20.4 14.6 70 3.3 ENE 7 11 4 6 1021.1 - 0.0
01/09:00pm 20.3 20.8 14.9 71 3.2 E 6 11 3 6 1021.2 1020.2 0.0
01/08:30pm 20.6 20.7 14.5 68 3.6 E 7 11 4 6 1021.0 - 0.0
01/08:00pm 20.8 20.9 14.5 67 3.7 E 7 13 4 7 1020.5 - 0.0
01/07:30pm 21.2 20.6 14.6 66 3.9 E 11 15 6 8 1020.2 - 0.0
01/07:00pm 21.7 20.8 14.8 65 4.1 ESE 13 22 7 12 1019.8 - 0.0
01/06:30pm 22.2 20.7 14.1 60 4.8 ESE 15 24 8 13 1019.3 - 0.0
01/06:00pm 22.8 20.7 13.6 56 5.4 E 17 24 9 13 1018.8 1017.8 0.0
01/05:30pm 23.7 21.3 13.9 54 5.8 E 19 35 10 19 1018.4 - 0.0
01/05:00pm 25.2 22.9 14.0 49 6.7 E 19 28 10 15 1018.0 - 0.0
01/04:30pm 26.3 23.4 12.9 43 7.9 E 20 30 11 16 1017.6 - 0.0
01/04:00pm 27.1 25.1 13.8 44 8.0 E 17 33 9 18 1017.5 - 0.0
01/03:30pm 27.1 24.5 13.8 44 8.0 E 20 33 11 18 1017.4 - 0.0
01/03:00pm 27.5 25.6 15.3 47 7.5 ENE 19 26 10 14 1017.2 1016.2 0.0
01/02:30pm 27.4 26.0 15.6 48 7.3 ENE 17 26 9 14 1017.6 - 0.0
01/02:00pm 25.6 26.4 18.2 63 4.7 SE 11 17 6 9 1018.0 - 0.0
01/01:30pm 23.0 23.2 17.6 71 3.4 E 13 22 7 12 1018.6 - 0.0
01/01:00pm 21.8 21.0 18.5 81 2.1 ESE 20 32 11 17 1019.2 - 0.0
01/12:30pm 25.9 24.4 14.1 48 7.1 E 15 24 8 13 1019.4 - 0.0
01/12:00pm 27.2 26.4 14.1 44 7.9 E 11 19 6 10 1019.8 1018.8 0.0
01/11:30am 27.4 25.5 14.1 44 8.0 NE 17 24 9 13 1020.3 - 0.0
01/11:00am 26.5 24.8 14.8 48 7.1 E 17 28 9 15 1021.1 - 0.0
01/10:30am 25.3 24.3 15.5 54 6.0 E 15 24 8 13 1021.6 - 0.0
01/10:00am 24.9 24.5 16.3 59 5.3 E 13 20 7 11 1021.7 - 0.0
01/09:30am 23.5 23.0 16.0 62 4.6 ESE 13 22 7 12 1021.8 - 0.0
01/09:00am 23.2 23.0 15.8 63 4.5 ESE 11 19 6 10 1021.9 1020.9 0.0
01/08:30am 21.9 21.7 15.6 67 3.8 E 11 17 6 9 1021.9 - 0.0
01/08:00am 21.0 20.5 15.9 72 3.1 E 13 20 7 11 1021.9 - 0.0
01/07:30am 19.9 20.2 16.1 79 2.3 ESE 9 13 5 7 1021.9 - 0.0
01/07:00am 18.3 18.5 15.8 85 1.5 SE 9 13 5 7 1021.6 - 0.0
01/06:30am 16.2 17.5 15.2 94 0.6 SSE 2 13 1 7 1021.3 - 0.0
01/06:00am 15.8 17.5 15.1 96 0.4 CALM 0 6 0 3 1021.1 1020.1 0.0
01/05:30am 16.0 17.7 15.1 94 0.5 CALM 0 2 0 1 1020.9 - 0.0
01/05:00am 16.6 17.5 15.1 91 0.9 SE 4 7 2 4 1020.6 - 0.0
01/04:30am 16.9 17.3 15.4 91 0.9 E 7 11 4 6 1020.3 - 0.0
01/04:00am 16.0 17.6 15.0 94 0.6 CALM 0 0 0 0 1020.2 - 0.0
01/03:30am 16.8 18.5 15.3 91 0.9 CALM 0 0 0 0 1020.2 - 0.0
01/03:00am 16.9 18.6 15.2 90 1.0 CALM 0 6 0 3 1020.4 1019.4 0.0
01/02:30am 17.5 19.2 15.1 86 1.4 CALM 0 0 0 0 1020.6 - 0.0
01/02:00am 18.5 19.3 14.9 79 2.1 ESE 4 9 2 5 1021.0 - 0.0
01/01:30am 19.2 20.1 15.0 76 2.5 ESE 4 7 2 4 1021.3 - 0.0
01/01:00am 19.2 20.6 15.3 78 2.3 E 2 7 1 4 1021.6 - 0.0
01/12:30am 19.4 20.4 15.4 77 2.4 SE 4 9 2 5 1021.8 - 0.0
01/12:00am 19.7 20.4 15.5 77 2.5 SE 6 7 3 4 1021.9 1020.9 0.0
 
Date/Time
EST
Temp
°C
App
Temp
°C
Dew
Point
Rel
Hum
%
Delta-T
°C
Wind Press
QNH
hPa
Press
MSL
hPa
Rain
since 9 am
mm
Dir
 
Spd
km/h
Gust
km/h
Spd
kts
Gust
kts
31/11:30pm 20.2 20.6 15.3 73 2.9 E 7 15 4 8 1022.0 - 0.0
31/11:00pm 20.6 20.3 15.4 72 3.1 ENE 11 19 6 10 1022.0 - 0.0
31/10:30pm 20.7 20.8 15.5 72 3.1 ENE 9 19 5 10 1022.1 - 0.0
31/10:00pm 18.6 19.6 16.3 86 1.4 N 6 7 3 4 1022.2 - 0.0
31/09:30pm 18.9 21.2 16.8 87 1.3 CALM 0 0 0 0 1022.2 - 0.0
31/09:00pm 19.3 21.6 16.7 85 1.6 CALM 0 0 0 0 1022.0 1020.5 0.0
31/08:30pm 20.5 21.4 16.0 75 2.7 SE 6 9 3 5 1021.7 - 0.0
31/08:00pm 20.8 21.7 16.0 74 2.9 SE 6 9 3 5 1021.5 - 0.0
31/07:30pm 20.9 22.3 16.3 75 2.8 SSE 4 7 2 4 1021.2 - 0.0
31/07:00pm 21.1 22.5 16.3 74 2.9 SSE 4 9 2 5 1021.1 - 0.0
31/06:30pm 21.3 21.4 16.4 73 3.0 SE 11 17 6 9 1021.0 - 0.0
31/06:00pm 21.8 22.2 16.2 70 3.4 SSE 9 15 5 8 1020.6 1019.1 0.0
31/05:30pm 21.8 21.8 16.2 70 3.4 S 11 19 6 10 1020.3 - 0.0
31/05:00pm 22.5 22.1 16.1 67 3.9 S 13 22 7 12 1020.3 - 0.0
31/04:30pm 23.1 21.8 15.9 64 4.4 S 17 24 9 13 1019.9 - 0.0
31/04:00pm 25.9 25.3 13.6 46 7.3 ENE 9 15 5 8 1019.6 - 0.0
31/03:30pm 26.3 25.6 14.2 47 7.3 NNE 11 17 6 9 1019.6 - 0.0
31/03:00pm 26.4 25.8 13.5 45 7.7 NNE 9 17 5 9 1019.7 1018.2 0.0
31/02:30pm 26.5 25.9 13.4 44 7.8 E 9 17 5 9 1020.2 - 0.0
31/02:00pm 26.8 26.9 13.8 44 7.8 NE 6 11 3 6 1020.4 - 0.0
31/01:30pm 26.6 25.5 13.1 43 8.0 NNE 11 17 6 9 1020.9 - 0.0
31/01:00pm 26.7 25.9 12.8 42 8.2 ESE 9 20 5 11 1021.2 - 0.0
31/12:30pm 26.5 24.9 12.9 43 8.0 ENE 13 19 7 10 1021.4 - 0.0
31/12:00pm 26.3 24.3 12.7 43 8.0 NE 15 24 8 13 1022.1 1020.6 0.0
31/11:30am 26.1 24.8 12.4 42 8.0 ENE 11 20 6 11 1022.3 - 0.0
31/11:00am 25.5 23.6 12.9 45 7.4 NE 15 22 8 12 1022.8 - 0.0
31/10:30am 25.1 23.1 12.8 46 7.2 NE 15 20 8 11 1023.3 - 0.0
31/10:00am 24.7 22.6 13.5 49 6.6 NNE 17 26 9 14 1023.8 - 0.0
31/09:30am 23.3 22.2 14.4 57 5.3 NE 13 20 7 11 1023.5 - 0.0
31/09:00am 23.0 21.3 14.8 60 4.9 NE 17 24 9 13 1023.5 1022.0 0.0
31/08:30am 22.0 20.9 15.2 65 4.1 NE 15 22 8 12 1023.5 - 0.0
31/08:00am 22.3 22.0 15.5 65 4.1 ENE 11 17 6 9 1023.1 - 0.0
31/07:30am 21.2 21.8 15.7 71 3.3 NE 7 13 4 7 1022.8 - 0.0
31/07:00am 20.2 20.7 15.5 74 2.8 E 7 13 4 7 1022.2 - 0.0
31/06:30am 19.7 21.7 16.1 80 2.2 CALM 0 6 0 3 1022.5 - 0.0
31/06:00am 19.9 21.6 15.2 74 2.8 CALM 0 0 0 0 1022.0 1020.5 0.0
31/05:30am 20.3 21.8 15.6 74 2.8 E 2 11 1 6 1021.6 - 0.0
31/05:00am 20.5 20.3 14.6 69 3.5 NNE 9 15 5 8 1020.9 - 0.0
31/04:30am 20.6 21.9 14.1 66 3.8 CALM 0 0 0 0 1021.1 - 0.0
31/04:00am 20.9 20.9 13.7 63 4.2 NNE 6 9 3 5 1020.9 - 0.0
31/03:30am 21.2 20.6 13.5 61 4.5 NE 9 17 5 9 1020.7 - 0.0
31/03:00am 21.5 20.9 13.4 60 4.7 NE 9 17 5 9 1020.7 1019.2 0.0
31/02:30am 21.8 21.3 13.8 60 4.7 NE 9 15 5 8 1021.3 - 0.0
31/02:00am 22.1 21.3 13.9 59 4.8 NE 11 17 6 9 1021.5 - 0.0
31/01:30am 22.4 21.5 13.7 58 5.1 NE 11 17 6 9 1021.9 - 0.0
31/01:00am 22.6 21.7 13.7 57 5.2 NE 11 22 6 12 1022.0 - 0.0
31/12:30am 22.6 22.7 14.5 60 4.8 NE 7 11 4 6 1022.4 - 0.0
31/12:00am 22.3 23.2 16.2 68 3.7 ESE 6 9 3 5 1022.5 1021.0 0.0
 
Date/Time
EST
Temp
°C
App
Temp
°C
Dew
Point
Rel
Hum
%
Delta-T
°C
Wind Press
QNH
hPa
Press
MSL
hPa
Rain
since 9 am
mm
Dir
 
Spd
km/h
Gust
km/h
Spd
kts
Gust
kts
30/11:30pm 22.5 23.5 16.8 70 3.5 SE 7 9 4 5 1022.6 - 0.0
30/11:00pm 22.8 23.7 16.5 67 3.9 SE 7 11 4 6 1022.9 - 0.0
30/10:30pm 22.6 24.9 16.8 69 3.6 CALM 0 0 0 0 1022.8 - 0.0
30/10:00pm 22.9 24.4 16.7 68 3.8 E 4 9 2 5 1022.7 - 0.0
30/09:30pm 22.9 24.8 16.6 67 3.9 SE 2 9 1 5 1022.8 - 0.0
30/09:00pm 22.8 23.7 16.6 68 3.8 E 7 11 4 6 1022.7 1021.2 0.0
30/08:30pm 22.8 23.7 16.6 68 3.8 ESE 7 9 4 5 1022.8 - 0.0
30/08:00pm 22.8 24.0 16.8 69 3.7 ESE 6 9 3 5 1022.7 - 0.0
30/07:30pm 22.9 23.5 16.7 68 3.8 SSE 9 13 5 7 1022.6 - 0.0
30/07:00pm 22.8 23.0 16.8 69 3.7 S 11 17 6 9 1022.4 - 0.0
30/06:30pm 23.2 23.3 16.6 66 4.1 S 11 20 6 11 1022.1 - 0.0
30/06:00pm 26.3 26.4 14.4 48 7.2 SE 7 11 4 6 1021.4 1019.9 0.0
30/05:30pm 26.5 26.5 14.2 46 7.4 ESE 7 11 4 6 1021.2 - 0.0
30/05:00pm 26.8 26.3 13.8 44 7.8 E 9 13 5 7 1020.9 - 0.0
30/04:30pm 27.2 27.3 14.5 45 7.7 E 7 11 4 6 1020.7 - 0.0
30/04:00pm 27.0 26.6 14.0 44 7.8 ENE 9 17 5 9 1020.5 - 0.0
30/03:30pm 27.2 26.5 14.3 45 7.8 ENE 11 17 6 9 1020.4 - 0.0
30/03:00pm 27.6 26.9 14.2 43 8.1 ENE 11 19 6 10 1020.3 1018.8 0.0
30/02:30pm 27.5 26.3 13.9 43 8.2 ENE 13 24 7 13 1020.5 - 0.0
30/02:00pm 28.2 27.3 13.7 41 8.7 NE 11 19 6 10 1020.6 - 0.0
30/01:30pm 28.7 27.3 14.6 42 8.6 NNE 15 20 8 11 1021.1 - 0.0
30/01:00pm 28.2 27.2 14.6 43 8.3 NNE 13 20 7 11 1021.5 - 0.0
30/12:30pm 26.8 26.6 14.8 47 7.3 NNW 9 15 5 8 1021.9 - 0.0
30/12:00pm 27.3 26.1 14.0 44 8.0 NNE 13 20 7 11 1022.2 1020.7 0.0
30/11:30am 26.5 24.9 13.8 45 7.6 NE 15 22 8 12 1022.7 - 0.0
30/11:00am 26.9 25.9 14.5 46 7.5 NE 13 20 7 11 1023.3 - 0.0
30/10:30am 25.9 24.8 14.4 49 6.9 NNE 13 20 7 11 1024.0 - 0.0
30/10:00am 26.0 24.8 15.0 50 6.7 NE 15 22 8 12 1024.1 - 0.0
30/09:30am 25.0 24.0 15.5 55 5.8 NNE 15 24 8 13 1024.4 - 0.0
30/09:00am 23.8 22.8 15.6 60 5.0 NNE 15 24 8 13 1024.5 1023.0 0.0
30/08:30am 22.0 21.1 15.9 68 3.7 NE 15 26 8 14 1024.1 - 0.0
30/08:00am 21.3 21.0 16.4 73 3.0 NE 13 19 7 10 1024.1 - 0.0
30/07:30am 20.6 21.3 16.0 75 2.8 NE 7 11 4 6 1023.6 - 0.0
30/07:00am 19.2 19.5 15.1 77 2.4 NE 7 11 4 6 1023.1 - 0.0
30/06:30am 18.4 20.1 15.2 81 1.9 CALM 0 0 0 0 1022.9 - 0.0
30/06:00am 18.7 20.4 15.1 79 2.1 CALM 0 4 0 2 1022.6 1021.1 0.0
30/05:30am 19.1 20.7 15.0 77 2.4 CALM 0 6 0 3 1022.3 - 0.0
30/05:00am 19.0 19.5 15.1 78 2.3 N 6 9 3 5 1022.1 - 0.0
30/04:30am 19.5 19.8 14.9 75 2.7 N 7 13 4 7 1021.6 - 0.0
30/04:00am 19.8 19.6 14.7 72 3.0 N 9 15 5 8 1021.3 - 0.0
30/03:30am 19.9 19.8 15.0 73 2.9 N 9 15 5 8 1021.4 - 0.0
30/03:00am 20.0 20.3 15.1 73 2.9 N 7 11 4 6 1021.5 1020.0 0.0
30/02:30am 20.5 20.5 15.1 71 3.2 N 9 15 5 8 1021.3 - 0.0
30/02:00am 21.1 20.7 15.1 68 3.6 NNE 11 20 6 11 1021.3 - 0.0
30/01:30am 21.3 21.1 15.7 70 3.4 N 11 19 6 10 1021.9 - 0.0
30/01:00am 21.6 21.4 15.8 69 3.5 N 11 19 6 10 1022.1 - 0.0
30/12:30am 22.1 21.3 16.0 68 3.7 N 15 22 8 12 1022.2 - 0.0
30/12:00am 22.4 21.9 16.0 67 3.9 N 13 22 7 12 1022.3 1020.8 0.0
 
Date/Time
EST
Temp
°C
App
Temp
°C
Dew
Point
Rel
Hum
%
Delta-T
°C
Wind Press
QNH
hPa
Press
MSL
hPa
Rain
since 9 am
mm
Dir
 
Spd
km/h
Gust
km/h
Spd
kts
Gust
kts
29/11:30pm 22.7 22.6 16.0 66 4.1 N 11 20 6 11 1022.5 - 0.0

Other Formats:

Comma delimited format used in spreadsheet applications
http://www.bom.gov.au/fwo/IDQ60801/IDQ60801.95529.axf

JavaScript Object Notation format (JSON) in row-major order
http://www.bom.gov.au/fwo/IDQ60801/IDQ60801.95529.json